Time;durP1;ratioP1;P1;durP2;ratioP2;P2;SDS_P1;SDS_P2;PMS_P1;PMS_P2;Temp;Humidity;BMP_temperature;BMP_pressure;BME280_temperature;BME280_humidity;BME280_pressure;Samples;Min_cycle;Max_cycle;Signal;HPM_P1;HPM_P2
2023/03/19 00:01:22;;;;;;;5.47;3.50;;;;;;;14.53;48.79;98469.44;7063555;28;20316;-78
2023/03/19 00:04:45;;;;;;;4.63;3.60;;;;;;;14.33;49.88;98471.72;7067214;27;20285;-80
2023/03/19 00:08:07;;;;;;;3.90;3.43;;;;;;;14.40;49.62;98466.97;7064417;28;20243;-79
2023/03/19 00:11:28;;;;;;;4.50;3.43;;;;;;;14.59;48.88;98471.19;7064220;28;20229;-78
2023/03/19 00:14:50;;;;;;;5.53;3.77;;;;;;;14.30;49.46;98464.03;7063499;28;20294;-79
2023/03/19 00:18:12;;;;;;;7.80;3.73;;;;;;;13.55;51.53;98470.28;7065073;28;20216;-79
2023/03/19 00:21:35;;;;;;;4.73;3.60;;;;;;;13.50;51.85;98448.47;7064882;28;20709;-79
2023/03/19 00:24:56;;;;;;;6.33;3.70;;;;;;;14.30;50.12;98472.16;7064756;28;20262;-78
2023/03/19 00:28:17;;;;;;;5.20;3.73;;;;;;;14.54;49.46;98471.91;7064251;28;20291;-78
2023/03/19 00:31:40;;;;;;;5.50;3.70;;;;;;;14.35;49.59;98466.88;7063857;28;20224;-78
2023/03/19 00:35:02;;;;;;;5.37;4.03;;;;;;;14.05;50.89;98471.56;7069770;28;20204;-78
2023/03/19 00:38:25;;;;;;;5.10;3.40;;;;;;;14.28;50.36;98474.31;7072759;28;20284;-78
2023/03/19 00:41:49;;;;;;;8.57;3.70;;;;;;;14.06;50.95;98468.63;7063685;28;20233;-78
2023/03/19 00:45:11;;;;;;;4.10;3.67;;;;;;;13.39;52.32;98454.72;7062607;28;20663;-78
2023/03/19 00:48:33;;;;;;;5.23;3.60;;;;;;;13.59;51.59;98453.34;7061234;28;20209;-79
2023/03/19 00:51:54;;;;;;;5.10;3.97;;;;;;;13.79;51.71;98475.53;7061415;28;20319;-78
2023/03/19 00:55:18;;;;;;;4.67;3.50;;;;;;;14.09;50.85;98476.25;7061393;28;20206;-79
2023/03/19 00:58:40;;;;;;;10.07;3.87;;;;;;;14.22;50.43;98484.19;7061935;28;20228;-79
2023/03/19 01:02:01;;;;;;;4.63;3.47;;;;;;;14.52;49.55;98484.06;7060428;27;20230;-78
2023/03/19 01:05:23;;;;;;;5.43;3.77;;;;;;;14.53;49.58;98491.97;7088513;27;20208;-79
2023/03/19 01:08:44;;;;;;;3.93;3.40;;;;;;;14.13;50.59;98477.44;7090481;27;20225;-78
2023/03/19 01:12:08;;;;;;;4.27;3.47;;;;;;;14.32;50.02;98481.72;7089987;27;20700;-79
2023/03/19 01:15:30;;;;;;;6.73;3.53;;;;;;;14.49;49.80;98489.94;7089114;27;20255;-78
2023/03/19 01:18:52;;;;;;;5.03;4.07;;;;;;;13.86;51.37;98478.94;7090791;27;20573;-80
2023/03/19 01:22:15;;;;;;;4.83;4.00;;;;;;;13.55;52.08;98492.78;7089923;27;20231;-81
2023/03/19 01:25:39;;;;;;;4.90;4.10;;;;;;;13.45;52.95;98491.72;7090019;27;20204;-81
2023/03/19 01:29:01;;;;;;;11.73;4.33;;;;;;;13.90;52.31;98487.44;7090083;27;20653;-81
2023/03/19 01:32:23;;;;;;;6.83;4.00;;;;;;;14.23;51.23;98493.97;7088778;27;20315;-80
2023/03/19 01:35:46;;;;;;;7.57;3.97;;;;;;;14.31;50.86;98496.34;7085985;27;20217;-81
2023/03/19 01:39:08;;;;;;;6.03;4.20;;;;;;;14.07;50.83;98455.88;7061443;28;20235;-78
2023/03/19 01:42:29;;;;;;;6.17;4.30;;;;;;;13.87;51.43;98482.50;7061442;28;20700;-80
2023/03/19 01:45:55;;;;;;;6.00;4.00;;;;;;;13.74;52.01;98490.84;7061785;28;20234;-79
2023/03/19 01:49:19;;;;;;;5.23;4.17;;;;;;;13.78;52.67;98495.56;7062144;28;20292;-80
2023/03/19 01:52:41;;;;;;;8.40;4.63;;;;;;;14.00;52.03;98515.63;7059857;28;20735;-79
2023/03/19 01:56:05;;;;;;;5.23;4.10;;;;;;;13.79;52.28;98518.88;7063025;28;20206;-79
2023/03/19 01:59:29;;;;;;;5.77;3.77;;;;;;;14.20;51.23;98496.31;7061661;27;20259;-81
2023/03/19 02:02:54;;;;;;;4.70;3.83;;;;;;;14.50;50.56;98522.28;7087610;27;20308;-79
2023/03/19 02:06:15;;;;;;;6.07;4.00;;;;;;;14.58;50.57;98535.47;7061626;27;20229;-79
2023/03/19 02:09:37;;;;;;;7.40;3.87;;;;;;;14.24;51.45;98532.78;7061001;28;20350;-79
2023/03/19 02:12:58;;;;;;;10.07;4.27;;;;;;;13.86;51.68;98502.53;7060548;28;20232;-80
2023/03/19 02:16:20;;;;;;;7.10;4.67;;;;;;;13.32;53.61;98491.88;7059546;28;20671;-80
2023/03/19 02:19:49;;;;;;;8.93;5.20;;;;;;;13.90;52.54;98542.47;7059713;28;20210;-79
2023/03/19 02:23:15;;;;;;;8.13;6.37;;;;;;;14.02;52.33;98547.91;7060302;28;20228;-80
2023/03/19 02:26:38;;;;;;;11.50;6.40;;;;;;;14.10;52.08;98547.59;7061225;28;20901;-79
2023/03/19 02:30:00;;;;;;;7.83;5.57;;;;;;;14.27;52.11;98549.38;7061839;28;20297;-80
2023/03/19 02:33:21;;;;;;;6.57;5.33;;;;;;;14.47;51.51;98544.47;7057404;28;20230;-81
2023/03/19 02:36:46;;;;;;;7.57;5.70;;;;;;;14.73;50.84;98541.25;7053655;28;20204;-81
2023/03/19 02:40:11;;;;;;;9.70;5.67;;;;;;;14.55;51.36;98551.41;7052711;28;20205;-81
2023/03/19 02:43:36;;;;;;;10.90;5.77;;;;;;;14.61;51.45;98553.16;7055486;28;20234;-81
2023/03/19 02:46:58;;;;;;;9.13;5.83;;;;;;;14.33;52.27;98553.88;7056637;28;20285;-81
2023/03/19 02:50:19;;;;;;;10.30;5.83;;;;;;;14.50;52.07;98551.28;7067989;28;20203;-81
2023/03/19 02:53:41;;;;;;;7.83;5.63;;;;;;;14.60;52.28;98565.94;7062175;28;20288;-81
2023/03/19 02:57:02;;;;;;;8.83;6.47;;;;;;;14.52;52.54;98562.75;7059269;28;20789;-80
2023/03/19 03:00:25;;;;;;;10.40;6.10;;;;;;;14.53;52.84;98554.38;7057727;28;20211;-81
2023/03/19 03:03:47;;;;;;;8.17;5.83;;;;;;;14.96;51.78;98562.94;7057844;28;20209;-81
2023/03/19 03:07:08;;;;;;;7.80;5.50;;;;;;;14.98;51.69;98562.72;7057679;28;20295;-79
2023/03/19 03:10:30;;;;;;;9.20;5.57;;;;;;;14.54;52.26;98544.31;7059960;28;20321;-81
2023/03/19 03:13:52;;;;;;;8.33;4.70;;;;;;;14.32;53.63;98565.78;7061382;28;20292;-81
2023/03/19 03:17:14;;;;;;;8.30;5.50;;;;;;;14.20;54.27;98566.81;7062434;28;20246;-81
2023/03/19 03:20:36;;;;;;;8.27;5.30;;;;;;;14.55;53.34;98582.09;7060910;28;20205;-81
2023/03/19 03:23:58;;;;;;;7.87;5.20;;;;;;;14.36;54.03;98572.41;7062280;28;20585;-79
2023/03/19 03:27:19;;;;;;;10.27;5.07;;;;;;;13.70;56.35;98574.44;7061915;28;20210;-81
2023/03/19 03:30:41;;;;;;;5.53;4.70;;;;;;;13.98;55.96;98563.81;7061596;28;20705;-81
2023/03/19 03:34:04;;;;;;;5.37;4.53;;;;;;;14.21;55.33;98582.88;7061487;28;20269;-81
2023/03/19 03:37:25;;;;;;;8.47;5.33;;;;;;;13.81;57.67;98580.97;7071895;27;20324;-81
2023/03/19 03:40:50;;;;;;;6.00;5.37;;;;;;;13.38;59.27;98564.06;7089461;27;20228;-80
2023/03/19 03:44:12;;;;;;;7.63;5.23;;;;;;;14.42;57.48;98571.47;7090897;27;20206;-81
2023/03/19 03:47:33;;;;;;;6.17;4.80;;;;;;;14.82;55.51;98555.28;7090726;27;20202;-80
2023/03/19 03:50:56;;;;;;;5.37;4.87;;;;;;;14.98;54.92;98571.66;7090174;27;20235;-81
2023/03/19 03:54:18;;;;;;;8.53;4.70;;;;;;;14.60;56.12;98582.22;7090422;27;20301;-80
2023/03/19 03:57:39;;;;;;;6.63;4.73;;;;;;;14.17;57.76;98546.38;7090394;27;20247;-81
2023/03/19 04:01:01;;;;;;;7.73;4.80;;;;;;;14.67;57.34;98560.34;7090049;27;20825;-80
2023/03/19 04:04:22;;;;;;;4.73;4.33;;;;;;;14.99;56.22;98556.22;7090918;27;20350;-79
2023/03/19 04:07:45;;;;;;;6.67;4.47;;;;;;;14.86;56.73;98564.63;7091818;27;20292;-81
2023/03/19 04:11:07;;;;;;;5.10;4.40;;;;;;;15.00;56.45;98571.44;7089877;27;20227;-79
2023/03/19 04:14:29;;;;;;;8.83;5.17;;;;;;;14.85;57.33;98571.91;7087861;27;20264;-79
2023/03/19 04:17:50;;;;;;;7.13;4.70;;;;;;;14.60;58.25;98576.78;7091364;27;20267;-80
2023/03/19 04:21:12;;;;;;;7.30;4.73;;;;;;;14.80;57.39;98573.72;7091050;27;20225;-80
2023/03/19 04:24:37;;;;;;;7.50;4.70;;;;;;;14.60;57.13;98582.22;7091384;27;20215;-80
2023/03/19 04:27:58;;;;;;;5.37;4.87;;;;;;;14.59;58.07;98593.28;7092138;27;20206;-79
2023/03/19 04:31:20;;;;;;;5.57;4.80;;;;;;;14.85;57.40;98590.09;7090700;27;20223;-80
2023/03/19 04:34:42;;;;;;;7.27;4.80;;;;;;;14.83;57.85;98593.06;7091715;27;20525;-80
2023/03/19 04:38:04;;;;;;;6.33;4.97;;;;;;;14.24;58.38;98589.72;7091571;27;20302;-79
2023/03/19 04:41:27;;;;;;;5.23;4.47;;;;;;;14.37;58.39;98586.78;7091334;27;20281;-80
2023/03/19 04:44:49;;;;;;;8.83;4.50;;;;;;;14.39;58.42;98590.09;7092528;27;20689;-80
2023/03/19 04:48:11;;;;;;;5.10;4.60;;;;;;;14.28;58.31;98596.34;7092183;27;20294;-79
2023/03/19 04:51:32;;;;;;;5.90;4.03;;;;;;;14.55;58.09;98611.09;7091164;27;20263;-79
2023/03/19 04:54:54;;;;;;;6.87;5.17;;;;;;;15.00;57.00;98587.72;7091933;27;20358;-79
2023/03/19 04:58:17;;;;;;;6.13;4.87;;;;;;;15.05;56.74;98610.38;7092315;27;20440;-79
2023/03/19 05:01:39;;;;;;;10.03;7.33;;;;;;;14.81;56.93;98572.63;7096162;27;20269;-80
2023/03/19 05:05:01;;;;;;;6.50;5.90;;;;;;;14.71;57.48;98611.22;7103962;27;20252;-80
2023/03/19 05:08:22;;;;;;;6.37;5.47;;;;;;;14.94;56.71;98616.66;7093950;27;20213;-79
2023/03/19 05:11:44;;;;;;;8.83;5.00;;;;;;;14.69;56.07;98591.63;7088444;27;20289;-83
2023/03/19 05:15:08;;;;;;;8.90;4.93;;;;;;;14.10;57.60;98626.22;7085821;27;20200;-84
2023/03/19 05:18:29;;;;;;;5.30;4.80;;;;;;;13.53;59.01;98613.25;7087642;27;20270;-79
2023/03/19 05:21:51;;;;;;;7.23;4.87;;;;;;;13.84;58.92;98613.88;7085707;27;20223;-78
2023/03/19 05:25:13;;;;;;;7.50;4.80;;;;;;;14.44;56.91;98620.88;7063925;27;20215;-78
2023/03/19 05:28:35;;;;;;;5.40;4.83;;;;;;;14.71;56.33;98630.22;7057459;28;20206;-79
2023/03/19 05:31:58;;;;;;;4.90;4.40;;;;;;;14.82;55.40;98640.25;7057399;28;20359;-80
2023/03/19 05:35:20;;;;;;;7.63;5.40;;;;;;;15.02;54.76;98629.84;7058209;28;20222;-79
2023/03/19 05:38:41;;;;;;;5.20;4.40;;;;;;;15.17;53.81;98632.91;7081549;27;20277;-78
2023/03/19 05:42:03;;;;;;;4.90;4.17;;;;;;;15.10;54.53;98625.97;7086730;27;20233;-80
2023/03/19 05:45:24;;;;;;;6.17;4.77;;;;;;;15.40;54.03;98634.78;7087495;27;20343;-80
2023/03/19 05:48:47;;;;;;;6.07;5.33;;;;;;;15.31;54.57;98630.75;7088160;27;20214;-78
2023/03/19 05:52:09;;;;;;;6.43;5.83;;;;;;;15.33;55.26;98637.63;7086238;27;20325;-78
2023/03/19 05:55:30;;;;;;;6.87;5.43;;;;;;;15.39;54.85;98625.81;7087318;27;20239;-79
2023/03/19 05:58:52;;;;;;;7.07;5.77;;;;;;;14.84;55.60;98616.41;7087106;27;20288;-79
2023/03/19 06:02:13;;;;;;;5.93;5.33;;;;;;;14.36;58.35;98628.53;7086944;27;20672;-79
2023/03/19 06:05:36;;;;;;;5.17;4.77;;;;;;;14.69;56.94;98642.38;7088035;27;20204;-78
2023/03/19 06:08:58;;;;;;;8.13;5.90;;;;;;;14.63;57.73;98646.03;7088714;27;20300;-78
2023/03/19 06:12:19;;;;;;;8.17;6.50;;;;;;;14.71;58.20;98659.25;7089234;27;20313;-80
2023/03/19 06:15:41;;;;;;;8.20;6.23;;;;;;;14.56;58.73;98667.00;7084081;27;20381;-80
2023/03/19 06:19:02;;;;;;;7.10;6.00;;;;;;;14.69;59.13;98662.19;7082419;27;20210;-80
2023/03/19 06:22:26;;;;;;;7.93;6.33;;;;;;;14.69;58.79;98654.03;7082184;27;20311;-80
2023/03/19 06:25:47;;;;;;;6.70;5.97;;;;;;;14.98;58.23;98665.88;7083113;27;20276;-82
2023/03/19 06:29:08;;;;;;;6.60;5.87;;;;;;;15.18;57.71;98661.72;7082496;27;20195;-78
2023/03/19 06:32:31;;;;;;;10.50;6.30;;;;;;;14.66;59.27;98650.97;7081371;27;20227;-78
2023/03/19 06:35:53;;;;;;;7.00;5.83;;;;;;;14.92;58.79;98664.09;7080229;27;20221;-79
2023/03/19 06:39:15;;;;;;;9.07;6.17;;;;;;;15.15;58.72;98659.47;7081277;27;20281;-80
2023/03/19 06:42:37;;;;;;;7.20;6.23;;;;;;;15.18;58.60;98660.91;7083549;27;20246;-80
2023/03/19 06:45:58;;;;;;;9.10;6.07;;;;;;;14.96;58.97;98660.66;7083538;27;20785;-79
2023/03/19 06:49:20;;;;;;;7.87;6.53;;;;;;;14.63;59.93;98668.53;7082023;27;20297;-79
2023/03/19 06:52:42;;;;;;;8.50;7.50;;;;;;;14.80;59.26;98653.22;7080468;27;20222;-78
2023/03/19 06:56:05;;;;;;;8.97;7.00;;;;;;;14.69;60.55;98666.81;7079717;27;20560;-76
2023/03/19 06:59:27;;;;;;;7.40;6.63;;;;;;;15.53;58.46;98669.84;7079716;27;20221;-76
2023/03/19 07:02:48;;;;;;;8.13;7.33;;;;;;;15.64;57.26;98650.78;7078942;27;20229;-77
2023/03/19 07:06:10;;;;;;;5.50;4.20;;;;;;;15.87;54.09;98672.44;7079798;28;20205;-78
2023/03/19 07:09:32;;;;;;;5.53;3.97;;;;;;;15.86;53.87;98672.72;7081066;28;20624;-79
2023/03/19 07:12:55;;;;;;;4.13;3.33;;;;;;;16.14;53.15;98672.69;7081915;28;20284;-79
2023/03/19 07:16:16;;;;;;;3.80;3.37;;;;;;;16.42;51.59;98668.09;7080694;28;20255;-79
2023/03/19 07:19:38;;;;;;;6.37;4.40;;;;;;;16.42;53.28;98680.88;7080307;28;20352;-79
2023/03/19 07:22:59;;;;;;;6.53;4.70;;;;;;;16.35;53.63;98678.25;7079220;28;20230;-78
2023/03/19 07:26:21;;;;;;;4.27;3.63;;;;;;;16.45;53.72;98666.78;7079519;28;20278;-80
2023/03/19 07:29:43;;;;;;;6.53;4.13;;;;;;;16.31;54.55;98673.56;7079690;28;20685;-77
2023/03/19 07:33:06;;;;;;;5.63;4.73;;;;;;;16.60;54.12;98667.03;7078873;28;20270;-77
2023/03/19 07:36:27;;;;;;;3.77;2.90;;;;;;;16.88;51.53;98667.78;7079832;28;20662;-82
2023/03/19 07:39:48;;;;;;;5.40;3.23;;;;;;;16.99;50.39;98672.31;7067122;28;20281;-78
2023/03/19 07:43:10;;;;;;;3.80;2.60;;;;;;;17.08;50.25;98668.09;7050617;28;20224;-78
2023/03/19 07:46:33;;;;;;;4.33;2.90;;;;;;;16.99;50.59;98677.75;7061212;28;20890;-77
2023/03/19 07:49:55;;;;;;;3.20;2.80;;;;;;;17.16;49.73;98677.75;7069553;27;20272;-77
2023/03/19 07:53:16;;;;;;;3.70;2.90;;;;;;;17.05;49.62;98665.06;7095791;27;21055;-80
2023/03/19 07:56:38;;;;;;;3.73;2.70;;;;;;;17.60;49.10;98682.22;7111194;27;20355;-79
2023/03/19 07:59:59;;;;;;;4.47;2.47;;;;;;;17.14;48.65;98675.28;7114745;27;20286;-79
2023/03/19 08:03:22;;;;;;;3.00;2.70;;;;;;;17.26;49.04;98676.00;7116321;27;20697;-79
2023/03/19 08:06:43;;;;;;;3.93;2.73;;;;;;;17.14;50.08;98690.78;7112685;27;20210;-79
2023/03/19 08:10:06;;;;;;;2.90;2.60;;;;;;;17.05;49.35;98656.88;7084621;27;20267;-78
2023/03/19 08:13:27;;;;;;;4.77;2.77;;;;;;;17.37;49.35;98690.56;7083478;27;20699;-80
2023/03/19 08:16:49;;;;;;;3.30;2.50;;;;;;;16.65;50.10;98643.47;7083352;27;20771;-79
2023/03/19 08:20:15;;;;;;;5.50;3.10;;;;;;;17.33;49.81;98690.25;7083194;27;20259;-79
2023/03/19 08:23:37;;;;;;;3.10;2.70;;;;;;;17.06;50.13;98670.25;7087220;27;20593;-80
2023/03/19 08:26:58;;;;;;;3.57;3.00;;;;;;;17.23;49.44;98672.94;7086773;27;20242;-80
2023/03/19 08:30:20;;;;;;;5.97;3.03;;;;;;;17.83;48.55;98681.97;7082596;27;20256;-81
2023/03/19 08:33:41;;;;;;;5.47;2.77;;;;;;;17.94;48.02;98683.75;7083581;27;20220;-80
2023/03/19 08:37:04;;;;;;;2.90;2.50;;;;;;;17.96;48.08;98687.03;7083443;27;20204;-80
2023/03/19 08:40:26;;;;;;;3.53;2.70;;;;;;;18.13;47.78;98676.84;7082636;27;20590;-80
2023/03/19 08:43:47;;;;;;;5.63;2.40;;;;;;;17.84;48.70;98662.63;7082195;27;20243;-80
2023/03/19 08:47:10;;;;;;;2.73;2.50;;;;;;;17.77;47.99;98661.16;7060448;28;20207;-79
2023/03/19 08:50:31;;;;;;;4.03;3.10;;;;;;;18.04;47.83;98681.94;7061783;28;20204;-80
2023/03/19 08:53:54;;;;;;;6.47;2.77;;;;;;;18.31;47.23;98681.97;7062017;28;20345;-80
2023/03/19 08:57:16;;;;;;;3.13;2.73;;;;;;;18.01;47.37;98689.81;7062160;28;20216;-80
2023/03/19 09:00:37;;;;;;;3.13;2.63;;;;;;;18.26;47.19;98685.47;7061811;28;20232;-80
2023/03/19 09:03:59;;;;;;;4.57;3.00;;;;;;;18.42;47.24;98698.25;7060815;28;20590;-80
2023/03/19 09:07:21;;;;;;;5.23;2.80;;;;;;;18.49;46.68;98690.66;7059247;28;20205;-80
2023/03/19 09:10:44;;;;;;;4.63;2.80;;;;;;;18.43;47.09;98693.59;7059732;28;20200;-80
2023/03/19 09:14:06;;;;;;;3.73;2.70;;;;;;;18.55;46.71;98700.53;7059332;28;20234;-80
2023/03/19 09:17:28;;;;;;;3.10;2.83;;;;;;;18.81;46.34;98702.41;7063002;28;20227;-80
2023/03/19 09:20:49;;;;;;;3.67;2.90;;;;;;;18.67;45.67;98709.41;7059931;28;20289;-79
2023/03/19 09:24:11;;;;;;;3.97;2.53;;;;;;;19.07;45.46;98706.19;7059845;28;20717;-80
2023/03/19 09:27:34;;;;;;;2.90;2.70;;;;;;;19.00;44.15;98678.25;7059979;28;20325;-80
2023/03/19 09:30:55;;;;;;;2.80;2.60;;;;;;;19.51;43.17;98688.47;7068891;28;20245;-80
2023/03/19 09:34:17;;;;;;;3.00;2.30;;;;;;;19.74;42.42;98701.75;7063174;28;20201;-79
2023/03/19 09:37:39;;;;;;;3.27;2.50;;;;;;;20.40;41.09;98696.25;7061877;28;20201;-79
2023/03/19 09:41:08;;;;;;;3.90;2.67;;;;;;;20.97;39.71;98687.84;7060173;28;20239;-79
2023/03/19 09:44:34;;;;;;;2.97;2.30;;;;;;;20.55;40.18;98689.97;7056591;28;20241;-79
2023/03/19 09:48:00;;;;;;;2.33;2.00;;;;;;;20.71;38.97;98687.00;7052617;28;20237;-79
2023/03/19 09:51:26;;;;;;;2.50;2.30;;;;;;;20.67;38.31;98683.94;7060119;28;20249;-79
2023/03/19 09:54:51;;;;;;;2.30;2.10;;;;;;;20.64;37.50;98647.25;7064877;28;20205;-79
2023/03/19 09:58:15;;;;;;;3.80;2.43;;;;;;;20.49;37.50;98641.75;7060521;28;20679;-80
2023/03/19 10:01:41;;;;;;;2.30;1.90;;;;;;;21.33;37.00;98673.03;7060141;28;20678;-79
2023/03/19 10:05:11;;;;;;;2.40;2.20;;;;;;;21.97;35.83;98670.09;7060925;28;20300;-79
2023/03/19 10:08:55;;;;;;;3.40;1.90;;;;;;;22.56;33.90;98659.91;7061526;28;20277;-79
2023/03/19 10:12:26;;;;;;;6.90;2.27;;;;;;;21.88;32.78;98649.81;7054625;28;20225;-79
2023/03/19 10:15:49;;;;;;;4.40;2.37;;;;;;;21.93;35.00;98659.94;7056512;27;20264;-79
2023/03/19 10:19:15;;;;;;;2.30;2.10;;;;;;;21.92;35.16;98661.88;7058706;28;20685;-82
2023/03/19 10:22:40;;;;;;;3.57;2.63;;;;;;;21.68;33.74;98635.34;7057920;28;20213;-78
2023/03/19 10:26:04;;;;;;;3.20;2.20;;;;;;;22.01;32.96;98653.88;7059014;28;20208;-85
2023/03/19 10:29:25;;;;;;;2.57;2.33;;;;;;;22.00;33.15;98600.03;7055976;28;20331;-85
2023/03/19 10:32:53;;;;;;;3.23;2.37;;;;;;;22.38;31.29;98644.06;7054265;28;20609;-83
2023/03/19 10:36:17;;;;;;;3.73;2.10;;;;;;;22.63;30.20;98637.56;7055017;28;20190;-81
2023/03/19 10:39:40;;;;;;;5.27;2.70;;;;;;;22.69;31.15;98620.78;7056457;28;20275;-84
2023/03/19 10:43:07;;;;;;;2.87;1.97;;;;;;;22.86;30.31;98634.09;7055793;28;20696;-84
2023/03/19 10:46:37;;;;;;;2.77;2.20;;;;;;;23.07;30.64;98611.59;7055381;28;20214;-87
2023/03/19 10:49:58;;;;;;;3.67;2.17;;;;;;;23.15;31.11;98630.25;7058839;27;20519;-87
2023/03/19 10:53:31;;;;;;;3.13;2.43;;;;;;;22.60;30.36;98589.50;7081324;27;20227;-84
2023/03/19 10:56:56;;;;;;;2.60;2.40;;;;;;;22.58;31.80;98632.94;7081919;27;20484;-85
2023/03/19 11:00:20;;;;;;;3.63;2.67;;;;;;;21.62;34.30;98617.22;7086377;27;20233;-83
2023/03/19 11:03:50;;;;;;;3.23;2.60;;;;;;;22.03;33.24;98624.22;7079478;27;20366;-86
2023/03/19 11:07:13;;;;;;;2.63;2.43;;;;;;;23.07;32.27;98616.31;7084952;27;20259;-83
2023/03/19 11:10:36;;;;;;;3.60;2.40;;;;;;;21.84;33.71;98613.03;7057469;28;20222;-83
2023/03/19 11:13:59;;;;;;;6.73;2.67;;;;;;;22.23;33.13;98621.31;7054557;28;20214;-81
2023/03/19 11:17:24;;;;;;;4.10;2.37;;;;;;;21.86;33.85;98599.88;7054203;28;20242;-80
2023/03/19 11:20:50;;;;;;;4.67;2.80;;;;;;;21.80;34.24;98622.13;7053492;28;20234;-80
2023/03/19 11:24:12;;;;;;;2.77;2.40;;;;;;;22.23;32.80;98602.09;7052426;28;20688;-80
2023/03/19 11:27:36;;;;;;;3.17;2.20;;;;;;;22.21;32.75;98594.16;7052995;28;20196;-80
2023/03/19 11:31:02;;;;;;;3.00;2.70;;;;;;;22.81;32.37;98607.47;7053519;28;20231;-81
2023/03/19 11:34:31;;;;;;;2.80;2.50;;;;;;;23.67;30.30;98602.72;7060854;28;20183;-82
2023/03/19 11:37:54;;;;;;;4.10;2.90;;;;;;;23.33;31.09;98602.03;7060557;28;20609;-82
2023/03/19 11:41:24;;;;;;;3.00;2.07;;;;;;;23.94;30.08;98604.88;7060325;28;20322;-81
2023/03/19 11:44:55;;;;;;;3.73;2.47;;;;;;;23.13;31.05;98602.19;7061956;28;20699;-82
2023/03/19 11:48:27;;;;;;;3.20;2.27;;;;;;;23.42;30.94;98593.97;7061128;28;20342;-81
2023/03/19 11:51:51;;;;;;;3.27;2.40;;;;;;;24.11;29.67;98597.75;7058222;28;20227;-81
2023/03/19 11:55:20;;;;;;;3.43;2.10;;;;;;;23.75;29.31;98591.06;7059115;28;20745;-81
2023/03/19 11:58:52;;;;;;;4.73;2.40;;;;;;;23.94;29.44;98594.69;7058273;28;20190;-81
2023/03/19 12:02:37;;;;;;;2.53;2.10;;;;;;;23.34;31.01;98580.81;7058019;28;20769;-81
2023/03/19 12:06:00;;;;;;;2.13;1.93;;;;;;;23.63;29.92;98576.06;7058648;28;20197;-81
2023/03/19 12:09:28;;;;;;;2.83;2.30;;;;;;;23.71;29.50;98575.44;7057798;28;20255;-81
2023/03/19 12:12:54;;;;;;;2.40;2.20;;;;;;;23.13;29.76;98571.13;7057593;28;20270;-81
2023/03/19 12:16:23;;;;;;;2.80;2.30;;;;;;;23.22;29.53;98569.41;7056997;28;20239;-81
2023/03/19 12:20:04;;;;;;;2.83;2.50;;;;;;;22.77;29.46;98567.09;7056545;28;20770;-81
2023/03/19 12:23:46;;;;;;;3.90;2.73;;;;;;;23.37;28.75;98556.28;7056002;28;20327;-81
2023/03/19 12:27:19;;;;;;;3.70;1.90;;;;;;;23.68;28.76;98546.56;7056764;28;20284;-81
2023/03/19 12:30:43;;;;;;;5.17;2.17;;;;;;;24.03;28.09;98548.03;7056236;28;20191;-81
2023/03/19 12:34:19;;;;;;;3.77;2.30;;;;;;;23.36;28.47;98551.91;7057124;28;20233;-82
2023/03/19 12:37:46;;;;;;;3.83;2.40;;;;;;;22.53;29.81;98536.00;7057075;28;20185;-81
2023/03/19 12:41:10;;;;;;;2.67;2.23;;;;;;;22.89;29.04;98553.78;7056738;28;20454;-82
2023/03/19 12:44:34;;;;;;;2.30;2.10;;;;;;;22.91;29.93;98562.56;7057333;28;20424;-83
2023/03/19 12:48:00;;;;;;;2.47;2.00;;;;;;;22.88;29.35;98552.13;7056731;28;20202;-81
2023/03/19 12:51:25;;;;;;;2.60;2.10;;;;;;;23.05;30.06;98531.34;7058931;27;20240;-81
2023/03/19 12:54:51;;;;;;;4.37;2.03;;;;;;;23.37;29.83;98550.78;7057339;28;20203;-81
2023/03/19 12:58:18;;;;;;;2.10;1.90;;;;;;;23.09;29.46;98540.66;7056880;28;20283;-81
2023/03/19 13:01:42;;;;;;;2.93;2.20;;;;;;;23.48;29.08;98551.50;7056177;28;20369;-81
2023/03/19 13:05:07;;;;;;;3.00;2.07;;;;;;;22.79;29.16;98493.41;7056665;28;20201;-80
2023/03/19 13:08:33;;;;;;;3.60;2.10;;;;;;;23.78;28.66;98545.59;7056830;28;20188;-81
2023/03/19 13:11:59;;;;;;;4.27;2.20;;;;;;;23.74;28.55;98537.13;7055306;28;20236;-82
2023/03/19 13:15:24;;;;;;;3.03;2.40;;;;;;;22.77;29.88;98547.88;7055789;28;20212;-82
2023/03/19 13:18:50;;;;;;;3.07;2.27;;;;;;;22.92;30.01;98544.94;7066431;27;20255;-81
2023/03/19 13:22:14;;;;;;;3.17;1.90;;;;;;;22.82;29.90;98517.53;7083864;27;20325;-81
2023/03/19 13:25:38;;;;;;;2.43;2.00;;;;;;;22.52;30.08;98529.66;7085215;27;20201;-81
2023/03/19 13:29:03;;;;;;;5.60;2.30;;;;;;;22.37;31.49;98550.94;7085582;27;20203;-81
2023/03/19 13:32:27;;;;;;;3.37;2.07;;;;;;;22.81;31.06;98555.22;7084096;27;20300;-81
2023/03/19 13:35:49;;;;;;;4.57;2.53;;;;;;;22.15;32.97;98554.13;7084015;27;20663;-81
2023/03/19 13:39:14;;;;;;;2.30;2.10;;;;;;;22.08;34.26;98572.81;7082425;27;20253;-81
2023/03/19 13:42:37;;;;;;;3.27;2.50;;;;;;;20.95;36.18;98581.22;7082300;27;20231;-82
2023/03/19 13:46:10;;;;;;;3.43;2.37;;;;;;;20.73;37.52;98571.63;7082291;27;20201;-81
2023/03/19 13:49:34;;;;;;;7.73;2.47;;;;;;;20.60;38.72;98583.13;7081955;27;20278;-85
2023/03/19 13:53:19;;;;;;;4.97;2.70;;;;;;;20.19;40.41;98589.69;7081942;27;20236;-84
2023/03/19 13:57:03;;;;;;;3.73;2.70;;;;;;;19.34;41.94;98582.00;7082686;27;20226;-81
2023/03/19 14:00:58;;;;;;;5.00;2.67;;;;;;;18.76;43.44;98584.09;7089803;27;20230;-79
2023/03/19 14:04:24;;;;;;;4.60;3.07;;;;;;;18.06;45.71;98578.84;7081963;27;20291;-80
2023/03/19 14:07:51;;;;;;;6.27;3.33;;;;;;;19.50;43.84;98588.34;7068526;27;20562;-79
2023/03/19 14:11:22;;;;;;;3.00;2.37;;;;;;;19.82;41.39;98581.63;7055555;28;20287;-79
2023/03/19 14:14:46;;;;;;;3.50;2.40;;;;;;;20.25;40.93;98553.84;7054239;28;20280;-81
2023/03/19 14:18:12;;;;;;;2.50;2.30;;;;;;;21.19;38.84;98566.63;7057859;27;20288;-80
2023/03/19 14:21:40;;;;;;;2.47;2.27;;;;;;;20.83;38.73;98567.78;7077986;27;20222;-80
2023/03/19 14:25:13;;;;;;;10.63;5.07;;;;;;;20.91;38.73;98582.03;7083602;27;20196;-81
2023/03/19 14:28:54;;;;;;;7.67;4.03;;;;;;;20.58;39.75;98564.22;7083648;27;20186;-80
2023/03/19 14:32:17;;;;;;;2.93;2.60;;;;;;;20.74;40.37;98568.63;7082929;27;20404;-82
2023/03/19 14:35:41;;;;;;;4.33;3.13;;;;;;;20.56;41.63;98584.78;7082095;27;20287;-80
2023/03/19 14:39:09;;;;;;;3.63;2.80;;;;;;;20.56;41.98;98580.13;7056706;27;20206;-79
2023/03/19 14:42:34;;;;;;;4.80;2.97;;;;;;;20.57;42.91;98568.06;7085953;27;20231;-80
2023/03/19 14:45:59;;;;;;;2.87;2.40;;;;;;;20.04;41.82;98567.75;7059639;28;20206;-81
2023/03/19 14:49:52;;;;;;;2.90;2.60;;;;;;;20.11;42.09;98562.88;7059770;28;20682;-80
2023/03/19 14:53:16;;;;;;;2.90;2.60;;;;;;;20.33;41.67;98569.72;7061131;28;20301;-81
2023/03/19 14:56:40;;;;;;;2.07;1.80;;;;;;;20.57;40.17;98562.59;7065413;27;20204;-80
2023/03/19 15:00:04;;;;;;;2.17;1.90;;;;;;;20.31;39.98;98568.34;7088622;27;20339;-81
2023/03/19 15:03:31;;;;;;;3.73;2.70;;;;;;;20.17;40.86;98559.03;7086297;27;20229;-81
2023/03/19 15:06:55;;;;;;;2.70;2.13;;;;;;;20.47;40.71;98570.00;7072311;27;20281;-80
2023/03/19 15:10:20;;;;;;;3.37;2.50;;;;;;;20.26;41.20;98582.03;7075228;28;20241;-80
2023/03/19 15:14:02;;;;;;;4.50;2.43;;;;;;;20.15;41.24;98578.47;7064854;28;20311;-79
2023/03/19 15:17:25;;;;;;;2.53;2.30;;;;;;;19.86;41.50;98588.22;7062292;28;20211;-81
2023/03/19 15:20:53;;;;;;;4.67;2.27;;;;;;;19.94;42.43;98603.31;7067048;28;20228;-76
2023/03/19 15:24:15;;;;;;;4.37;2.70;;;;;;;20.12;42.89;98600.09;7061070;28;20236;-79
2023/03/19 15:27:36;;;;;;;5.07;3.17;;;;;;;19.62;44.45;98608.94;7056547;28;20358;-79
2023/03/19 15:31:01;;;;;;;3.23;2.83;;;;;;;19.79;44.82;98603.25;7057278;28;20709;-82
2023/03/19 15:34:24;;;;;;;4.13;2.50;;;;;;;19.42;44.75;98599.81;7066138;28;20212;-79
2023/03/19 15:37:48;;;;;;;2.50;2.30;;;;;;;19.23;45.75;98607.63;7053696;28;20327;-79
2023/03/19 15:41:11;;;;;;;5.83;2.70;;;;;;;19.37;45.58;98613.47;7080773;28;20311;-78
2023/03/19 15:44:35;;;;;;;3.27;2.53;;;;;;;19.54;45.88;98616.81;7079861;28;20225;-80
2023/03/19 15:48:02;;;;;;;3.53;2.70;;;;;;;19.63;45.29;98617.97;7059779;28;20338;-77
2023/03/19 15:51:25;;;;;;;2.87;2.60;;;;;;;19.25;45.87;98621.88;7052102;28;20232;-77
2023/03/19 15:54:47;;;;;;;3.67;2.90;;;;;;;19.31;45.61;98620.81;7069815;28;20299;-77
2023/03/19 15:58:10;;;;;;;2.50;2.30;;;;;;;19.09;45.66;98586.47;7079621;28;20357;-77
2023/03/19 16:01:33;;;;;;;3.30;2.70;;;;;;;19.45;44.57;98612.97;7081656;28;20311;-78